sensor_id;sensor_type;location;lat;lon;timestamp;temperature;humidity
60723;DHT22;46574;52.818;6.516;2024-02-23T00:02:05;5.60;99.90
60723;DHT22;46574;52.818;6.516;2024-02-23T00:04:31;5.60;99.90
60723;DHT22;46574;52.818;6.516;2024-02-23T00:06:56;5.60;99.90
60723;DHT22;46574;52.818;6.516;2024-02-23T00:09:22;5.60;99.90
60723;DHT22;46574;52.818;6.516;2024-02-23T00:11:47;5.60;99.90
60723;DHT22;46574;52.818;6.516;2024-02-23T00:14:16;5.60;99.90
60723;DHT22;46574;52.818;6.516;2024-02-23T00:16:43;5.60;99.90
60723;DHT22;46574;52.818;6.516;2024-02-23T00:19:09;5.50;99.90
60723;DHT22;46574;52.818;6.516;2024-02-23T00:21:36;5.40;99.90
60723;DHT22;46574;52.818;6.516;2024-02-23T00:24:02;5.30;99.90
60723;DHT22;46574;52.818;6.516;2024-02-23T00:26:28;5.30;99.90
60723;DHT22;46574;52.818;6.516;2024-02-23T00:28:55;5.20;99.90
60723;DHT22;46574;52.818;6.516;2024-02-23T00:31:21;5.20;99.90
60723;DHT22;46574;52.818;6.516;2024-02-23T00:33:47;5.10;99.90
60723;DHT22;46574;52.818;6.516;2024-02-23T00:36:12;5.10;99.90
60723;DHT22;46574;52.818;6.516;2024-02-23T00:38:38;5.00;99.90
60723;DHT22;46574;52.818;6.516;2024-02-23T00:41:04;4.90;99.90
60723;DHT22;46574;52.818;6.516;2024-02-23T00:43:36;4.80;99.90
60723;DHT22;46574;52.818;6.516;2024-02-23T00:46:03;4.80;99.90
60723;DHT22;46574;52.818;6.516;2024-02-23T00:48:30;4.80;99.90
60723;DHT22;46574;52.818;6.516;2024-02-23T00:50:55;4.60;99.90
60723;DHT22;46574;52.818;6.516;2024-02-23T00:53:21;4.50;99.90
60723;DHT22;46574;52.818;6.516;2024-02-23T00:55:47;4.40;99.90
60723;DHT22;46574;52.818;6.516;2024-02-23T00:58:13;4.30;99.90
60723;DHT22;46574;52.818;6.516;2024-02-23T01:00:38;4.30;99.90
60723;DHT22;46574;52.818;6.516;2024-02-23T01:03:04;4.40;99.90
60723;DHT22;46574;52.818;6.516;2024-02-23T01:05:30;4.40;99.90
60723;DHT22;46574;52.818;6.516;2024-02-23T01:07:56;4.40;99.90
60723;DHT22;46574;52.818;6.516;2024-02-23T01:10:21;4.50;99.90
60723;DHT22;46574;52.818;6.516;2024-02-23T01:12:47;4.60;99.90
60723;DHT22;46574;52.818;6.516;2024-02-23T01:15:13;4.60;99.90
60723;DHT22;46574;52.818;6.516;2024-02-23T01:17:38;4.60;99.90
60723;DHT22;46574;52.818;6.516;2024-02-23T01:20:04;4.70;99.90
60723;DHT22;46574;52.818;6.516;2024-02-23T01:22:30;4.70;99.90
60723;DHT22;46574;52.818;6.516;2024-02-23T01:24:56;4.80;99.90
60723;DHT22;46574;52.818;6.516;2024-02-23T01:27:21;4.80;99.90
60723;DHT22;46574;52.818;6.516;2024-02-23T01:29:47;4.90;99.90
60723;DHT22;46574;52.818;6.516;2024-02-23T01:32:13;4.90;99.90
60723;DHT22;46574;52.818;6.516;2024-02-23T01:34:39;4.90;99.90
60723;DHT22;46574;52.818;6.516;2024-02-23T01:37:04;5.00;99.90
60723;DHT22;46574;52.818;6.516;2024-02-23T01:39:30;5.00;99.90
60723;DHT22;46574;52.818;6.516;2024-02-23T01:41:55;5.00;99.90
60723;DHT22;46574;52.818;6.516;2024-02-23T01:44:21;5.00;99.90
60723;DHT22;46574;52.818;6.516;2024-02-23T01:46:48;5.10;99.90
60723;DHT22;46574;52.818;6.516;2024-02-23T01:49:14;5.10;99.90
60723;DHT22;46574;52.818;6.516;2024-02-23T01:51:40;5.10;99.90
60723;DHT22;46574;52.818;6.516;2024-02-23T01:54:07;5.20;99.90
60723;DHT22;46574;52.818;6.516;2024-02-23T01:56:34;5.30;99.90
60723;DHT22;46574;52.818;6.516;2024-02-23T01:59:02;5.30;99.90
60723;DHT22;46574;52.818;6.516;2024-02-23T02:01:30;5.30;99.90
60723;DHT22;46574;52.818;6.516;2024-02-23T02:03:56;5.30;99.90
60723;DHT22;46574;52.818;6.516;2024-02-23T02:06:23;5.30;99.90
60723;DHT22;46574;52.818;6.516;2024-02-23T02:08:49;5.30;99.90
60723;DHT22;46574;52.818;6.516;2024-02-23T02:11:15;5.40;99.90
60723;DHT22;46574;52.818;6.516;2024-02-23T02:13:40;5.40;99.90
60723;DHT22;46574;52.818;6.516;2024-02-23T02:16:06;5.40;99.90
60723;DHT22;46574;52.818;6.516;2024-02-23T02:18:32;5.40;99.90
60723;DHT22;46574;52.818;6.516;2024-02-23T02:20:58;5.50;99.90
60723;DHT22;46574;52.818;6.516;2024-02-23T02:23:24;5.50;99.90
60723;DHT22;46574;52.818;6.516;2024-02-23T02:25:58;5.60;99.90
60723;DHT22;46574;52.818;6.516;2024-02-23T02:28:24;5.60;99.90
60723;DHT22;46574;52.818;6.516;2024-02-23T02:30:51;5.60;99.90
60723;DHT22;46574;52.818;6.516;2024-02-23T02:33:18;5.70;99.90
60723;DHT22;46574;52.818;6.516;2024-02-23T02:35:43;5.70;99.90
60723;DHT22;46574;52.818;6.516;2024-02-23T02:38:10;5.70;99.90
60723;DHT22;46574;52.818;6.516;2024-02-23T02:40:36;5.70;99.90
60723;DHT22;46574;52.818;6.516;2024-02-23T02:43:02;5.70;99.90
60723;DHT22;46574;52.818;6.516;2024-02-23T02:45:28;5.70;99.90
60723;DHT22;46574;52.818;6.516;2024-02-23T02:47:54;5.70;99.90
60723;DHT22;46574;52.818;6.516;2024-02-23T02:50:20;5.70;99.90
60723;DHT22;46574;52.818;6.516;2024-02-23T02:52:45;5.70;99.90
60723;DHT22;46574;52.818;6.516;2024-02-23T02:55:11;5.70;99.90
60723;DHT22;46574;52.818;6.516;2024-02-23T02:57:37;5.70;99.90
60723;DHT22;46574;52.818;6.516;2024-02-23T03:00:04;5.70;99.90
60723;DHT22;46574;52.818;6.516;2024-02-23T03:02:34;5.70;99.90
60723;DHT22;46574;52.818;6.516;2024-02-23T03:05:00;5.70;99.90
60723;DHT22;46574;52.818;6.516;2024-02-23T03:07:25;5.70;99.90
60723;DHT22;46574;52.818;6.516;2024-02-23T03:09:51;5.70;99.90
60723;DHT22;46574;52.818;6.516;2024-02-23T03:12:17;5.70;99.90
60723;DHT22;46574;52.818;6.516;2024-02-23T03:14:43;5.70;99.90
60723;DHT22;46574;52.818;6.516;2024-02-23T03:17:09;5.60;99.90
60723;DHT22;46574;52.818;6.516;2024-02-23T03:19:36;5.60;99.90
60723;DHT22;46574;52.818;6.516;2024-02-23T03:22:01;5.70;99.90
60723;DHT22;46574;52.818;6.516;2024-02-23T03:24:27;5.70;99.90
60723;DHT22;46574;52.818;6.516;2024-02-23T03:26:53;5.70;99.90
60723;DHT22;46574;52.818;6.516;2024-02-23T03:29:19;5.70;99.90
60723;DHT22;46574;52.818;6.516;2024-02-23T03:31:45;5.70;99.90
60723;DHT22;46574;52.818;6.516;2024-02-23T03:34:11;5.70;99.90
60723;DHT22;46574;52.818;6.516;2024-02-23T03:36:38;5.70;99.90
60723;DHT22;46574;52.818;6.516;2024-02-23T03:39:04;5.70;99.90
60723;DHT22;46574;52.818;6.516;2024-02-23T03:41:29;5.70;99.90
60723;DHT22;46574;52.818;6.516;2024-02-23T03:43:55;5.70;99.90
60723;DHT22;46574;52.818;6.516;2024-02-23T03:46:21;5.70;99.90
60723;DHT22;46574;52.818;6.516;2024-02-23T03:48:47;5.60;99.90
60723;DHT22;46574;52.818;6.516;2024-02-23T03:51:13;5.70;99.90
60723;DHT22;46574;52.818;6.516;2024-02-23T03:53:38;5.60;99.90
60723;DHT22;46574;52.818;6.516;2024-02-23T03:56:04;5.60;99.90
60723;DHT22;46574;52.818;6.516;2024-02-23T03:58:30;5.60;99.90
60723;DHT22;46574;52.818;6.516;2024-02-23T04:00:55;5.60;99.90
60723;DHT22;46574;52.818;6.516;2024-02-23T04:03:21;5.50;99.90
60723;DHT22;46574;52.818;6.516;2024-02-23T04:05:47;5.40;99.90
60723;DHT22;46574;52.818;6.516;2024-02-23T04:08:12;5.40;99.90
60723;DHT22;46574;52.818;6.516;2024-02-23T04:10:38;5.40;99.90
60723;DHT22;46574;52.818;6.516;2024-02-23T04:13:04;5.30;99.90
60723;DHT22;46574;52.818;6.516;2024-02-23T04:15:29;5.20;99.90
60723;DHT22;46574;52.818;6.516;2024-02-23T04:17:55;5.20;99.90
60723;DHT22;46574;52.818;6.516;2024-02-23T04:20:21;5.30;99.90
60723;DHT22;46574;52.818;6.516;2024-02-23T04:22:46;5.20;99.90
60723;DHT22;46574;52.818;6.516;2024-02-23T04:25:12;5.20;99.90
60723;DHT22;46574;52.818;6.516;2024-02-23T04:27:38;5.20;99.90
60723;DHT22;46574;52.818;6.516;2024-02-23T04:30:05;5.20;99.90
60723;DHT22;46574;52.818;6.516;2024-02-23T04:32:31;5.30;99.90
60723;DHT22;46574;52.818;6.516;2024-02-23T04:34:57;5.20;99.90
60723;DHT22;46574;52.818;6.516;2024-02-23T04:37:22;5.30;99.90
60723;DHT22;46574;52.818;6.516;2024-02-23T04:39:48;5.30;99.90
60723;DHT22;46574;52.818;6.516;2024-02-23T04:42:14;5.30;99.90
60723;DHT22;46574;52.818;6.516;2024-02-23T04:44:41;5.30;99.90
60723;DHT22;46574;52.818;6.516;2024-02-23T04:47:07;5.40;99.90
60723;DHT22;46574;52.818;6.516;2024-02-23T04:49:33;5.40;99.90
60723;DHT22;46574;52.818;6.516;2024-02-23T04:51:58;5.40;99.90
60723;DHT22;46574;52.818;6.516;2024-02-23T04:54:24;5.40;99.90
60723;DHT22;46574;52.818;6.516;2024-02-23T04:56:50;5.40;99.90
60723;DHT22;46574;52.818;6.516;2024-02-23T04:59:16;5.40;99.90
60723;DHT22;46574;52.818;6.516;2024-02-23T05:01:41;5.50;99.90
60723;DHT22;46574;52.818;6.516;2024-02-23T05:04:08;5.50;99.90
60723;DHT22;46574;52.818;6.516;2024-02-23T05:06:34;5.50;99.90
60723;DHT22;46574;52.818;6.516;2024-02-23T05:09:01;5.50;99.90
60723;DHT22;46574;52.818;6.516;2024-02-23T05:11:27;5.50;99.90
60723;DHT22;46574;52.818;6.516;2024-02-23T05:13:52;5.50;99.90
60723;DHT22;46574;52.818;6.516;2024-02-23T05:16:18;5.50;99.90
60723;DHT22;46574;52.818;6.516;2024-02-23T05:18:44;5.50;99.90
60723;DHT22;46574;52.818;6.516;2024-02-23T05:21:12;5.50;99.90
60723;DHT22;46574;52.818;6.516;2024-02-23T05:23:38;5.50;99.90
60723;DHT22;46574;52.818;6.516;2024-02-23T05:26:03;5.40;99.90
60723;DHT22;46574;52.818;6.516;2024-02-23T05:28:29;5.40;99.90
60723;DHT22;46574;52.818;6.516;2024-02-23T05:30:55;5.40;99.90
60723;DHT22;46574;52.818;6.516;2024-02-23T05:33:21;5.40;99.90
60723;DHT22;46574;52.818;6.516;2024-02-23T05:35:47;5.40;99.90
60723;DHT22;46574;52.818;6.516;2024-02-23T05:38:15;5.40;99.90
60723;DHT22;46574;52.818;6.516;2024-02-23T05:40:42;5.40;99.90
60723;DHT22;46574;52.818;6.516;2024-02-23T05:43:08;5.50;99.90
60723;DHT22;46574;52.818;6.516;2024-02-23T05:45:34;5.50;99.90
60723;DHT22;46574;52.818;6.516;2024-02-23T05:47:59;5.40;99.90
60723;DHT22;46574;52.818;6.516;2024-02-23T05:50:25;5.40;99.90
60723;DHT22;46574;52.818;6.516;2024-02-23T05:52:51;5.40;99.90
60723;DHT22;46574;52.818;6.516;2024-02-23T05:55:18;5.30;99.90
60723;DHT22;46574;52.818;6.516;2024-02-23T05:57:44;5.30;99.90
60723;DHT22;46574;52.818;6.516;2024-02-23T06:00:10;5.30;99.90
60723;DHT22;46574;52.818;6.516;2024-02-23T06:02:37;5.30;99.90
60723;DHT22;46574;52.818;6.516;2024-02-23T06:05:02;5.30;99.90
60723;DHT22;46574;52.818;6.516;2024-02-23T06:07:29;5.30;99.90
60723;DHT22;46574;52.818;6.516;2024-02-23T06:09:56;5.30;99.90
60723;DHT22;46574;52.818;6.516;2024-02-23T06:12:22;5.30;99.90
60723;DHT22;46574;52.818;6.516;2024-02-23T06:14:47;5.30;99.90
60723;DHT22;46574;52.818;6.516;2024-02-23T06:17:13;5.30;99.90
60723;DHT22;46574;52.818;6.516;2024-02-23T06:19:39;5.30;99.90
60723;DHT22;46574;52.818;6.516;2024-02-23T06:22:04;5.20;99.90
60723;DHT22;46574;52.818;6.516;2024-02-23T06:24:30;5.20;99.90
60723;DHT22;46574;52.818;6.516;2024-02-23T06:26:55;5.20;99.90
60723;DHT22;46574;52.818;6.516;2024-02-23T06:29:23;5.20;99.90
60723;DHT22;46574;52.818;6.516;2024-02-23T06:31:49;5.30;99.90
60723;DHT22;46574;52.818;6.516;2024-02-23T06:34:15;5.30;99.90
60723;DHT22;46574;52.818;6.516;2024-02-23T06:36:41;5.20;99.90
60723;DHT22;46574;52.818;6.516;2024-02-23T06:39:07;5.20;99.90
60723;DHT22;46574;52.818;6.516;2024-02-23T06:41:33;5.30;99.90
60723;DHT22;46574;52.818;6.516;2024-02-23T06:43:59;5.30;99.90
60723;DHT22;46574;52.818;6.516;2024-02-23T06:46:25;5.30;99.90
60723;DHT22;46574;52.818;6.516;2024-02-23T06:48:51;5.30;99.90
60723;DHT22;46574;52.818;6.516;2024-02-23T06:51:16;5.40;99.90
60723;DHT22;46574;52.818;6.516;2024-02-23T06:53:42;5.40;99.90
60723;DHT22;46574;52.818;6.516;2024-02-23T06:56:08;5.50;99.90
60723;DHT22;46574;52.818;6.516;2024-02-23T06:58:34;5.50;99.90
60723;DHT22;46574;52.818;6.516;2024-02-23T07:01:00;5.50;99.90
60723;DHT22;46574;52.818;6.516;2024-02-23T07:03:26;5.60;99.90
60723;DHT22;46574;52.818;6.516;2024-02-23T07:05:52;5.60;99.90
60723;DHT22;46574;52.818;6.516;2024-02-23T07:08:18;5.60;99.90
60723;DHT22;46574;52.818;6.516;2024-02-23T07:10:43;5.60;99.90
60723;DHT22;46574;52.818;6.516;2024-02-23T07:13:09;5.60;99.90
60723;DHT22;46574;52.818;6.516;2024-02-23T07:15:35;5.70;99.90
60723;DHT22;46574;52.818;6.516;2024-02-23T07:18:04;5.70;99.90
60723;DHT22;46574;52.818;6.516;2024-02-23T07:20:30;5.70;99.90
60723;DHT22;46574;52.818;6.516;2024-02-23T07:22:55;5.70;99.90
60723;DHT22;46574;52.818;6.516;2024-02-23T07:25:21;5.80;99.90
60723;DHT22;46574;52.818;6.516;2024-02-23T07:27:47;5.80;99.90
60723;DHT22;46574;52.818;6.516;2024-02-23T07:30:16;5.80;99.90
60723;DHT22;46574;52.818;6.516;2024-02-23T07:32:46;5.90;99.90
60723;DHT22;46574;52.818;6.516;2024-02-23T07:35:12;5.90;99.90
60723;DHT22;46574;52.818;6.516;2024-02-23T07:37:37;5.90;99.90
60723;DHT22;46574;52.818;6.516;2024-02-23T07:40:03;6.00;99.90
60723;DHT22;46574;52.818;6.516;2024-02-23T07:42:31;6.00;99.90
60723;DHT22;46574;52.818;6.516;2024-02-23T07:44:57;6.00;99.90
60723;DHT22;46574;52.818;6.516;2024-02-23T07:47:23;6.00;99.90
60723;DHT22;46574;52.818;6.516;2024-02-23T07:49:49;6.00;99.90
60723;DHT22;46574;52.818;6.516;2024-02-23T07:52:15;6.10;99.90
60723;DHT22;46574;52.818;6.516;2024-02-23T07:54:40;6.00;99.90
60723;DHT22;46574;52.818;6.516;2024-02-23T07:57:06;6.10;99.90
60723;DHT22;46574;52.818;6.516;2024-02-23T07:59:32;6.10;99.90
60723;DHT22;46574;52.818;6.516;2024-02-23T08:01:58;6.10;99.90
60723;DHT22;46574;52.818;6.516;2024-02-23T08:04:24;6.10;99.90
60723;DHT22;46574;52.818;6.516;2024-02-23T08:06:50;6.10;99.90
60723;DHT22;46574;52.818;6.516;2024-02-23T08:09:16;6.10;99.90
60723;DHT22;46574;52.818;6.516;2024-02-23T08:11:43;6.20;99.90
60723;DHT22;46574;52.818;6.516;2024-02-23T08:14:08;6.20;99.90
60723;DHT22;46574;52.818;6.516;2024-02-23T08:16:34;6.20;99.90
60723;DHT22;46574;52.818;6.516;2024-02-23T08:19:00;6.30;99.90
60723;DHT22;46574;52.818;6.516;2024-02-23T08:21:25;6.30;99.90
60723;DHT22;46574;52.818;6.516;2024-02-23T08:23:54;6.30;99.90
60723;DHT22;46574;52.818;6.516;2024-02-23T08:26:19;6.30;99.90
60723;DHT22;46574;52.818;6.516;2024-02-23T08:28:45;6.30;99.90
60723;DHT22;46574;52.818;6.516;2024-02-23T08:31:11;6.30;99.90
60723;DHT22;46574;52.818;6.516;2024-02-23T08:33:36;6.30;99.90
60723;DHT22;46574;52.818;6.516;2024-02-23T08:36:02;6.40;99.90
60723;DHT22;46574;52.818;6.516;2024-02-23T08:38:32;6.40;99.90
60723;DHT22;46574;52.818;6.516;2024-02-23T08:40:57;6.50;99.90
60723;DHT22;46574;52.818;6.516;2024-02-23T08:43:24;6.60;99.90
60723;DHT22;46574;52.818;6.516;2024-02-23T08:45:49;6.60;99.90
60723;DHT22;46574;52.818;6.516;2024-02-23T08:48:15;6.70;99.90
60723;DHT22;46574;52.818;6.516;2024-02-23T08:50:41;6.70;99.90
60723;DHT22;46574;52.818;6.516;2024-02-23T08:53:07;6.70;99.90
60723;DHT22;46574;52.818;6.516;2024-02-23T08:55:32;6.80;99.90
60723;DHT22;46574;52.818;6.516;2024-02-23T08:57:58;6.80;99.90
60723;DHT22;46574;52.818;6.516;2024-02-23T09:00:24;6.90;99.90
60723;DHT22;46574;52.818;6.516;2024-02-23T09:02:50;7.00;99.90
60723;DHT22;46574;52.818;6.516;2024-02-23T09:05:16;7.00;99.90
60723;DHT22;46574;52.818;6.516;2024-02-23T09:07:44;7.10;99.90
60723;DHT22;46574;52.818;6.516;2024-02-23T09:10:10;7.10;99.90
60723;DHT22;46574;52.818;6.516;2024-02-23T09:12:37;7.20;99.90
60723;DHT22;46574;52.818;6.516;2024-02-23T09:15:03;7.30;99.90
60723;DHT22;46574;52.818;6.516;2024-02-23T09:17:29;7.40;99.90
60723;DHT22;46574;52.818;6.516;2024-02-23T09:19:54;7.40;99.90
60723;DHT22;46574;52.818;6.516;2024-02-23T09:22:20;7.40;99.90
60723;DHT22;46574;52.818;6.516;2024-02-23T09:24:46;7.40;99.90
60723;DHT22;46574;52.818;6.516;2024-02-23T09:27:11;7.40;99.90
60723;DHT22;46574;52.818;6.516;2024-02-23T09:29:37;7.40;99.90
60723;DHT22;46574;52.818;6.516;2024-02-23T09:32:03;7.30;99.90
60723;DHT22;46574;52.818;6.516;2024-02-23T09:34:30;7.30;99.90
60723;DHT22;46574;52.818;6.516;2024-02-23T09:36:56;7.40;99.90
60723;DHT22;46574;52.818;6.516;2024-02-23T09:39:21;7.40;99.90
60723;DHT22;46574;52.818;6.516;2024-02-23T09:41:50;7.40;99.90
60723;DHT22;46574;52.818;6.516;2024-02-23T09:44:16;7.40;99.90
60723;DHT22;46574;52.818;6.516;2024-02-23T09:46:43;7.50;99.90
60723;DHT22;46574;52.818;6.516;2024-02-23T09:49:11;7.60;99.90
60723;DHT22;46574;52.818;6.516;2024-02-23T09:51:38;7.60;99.90
60723;DHT22;46574;52.818;6.516;2024-02-23T09:54:04;7.70;99.90
60723;DHT22;46574;52.818;6.516;2024-02-23T09:56:30;7.60;99.90
60723;DHT22;46574;52.818;6.516;2024-02-23T09:58:58;7.60;99.90
60723;DHT22;46574;52.818;6.516;2024-02-23T10:01:29;7.70;99.90
60723;DHT22;46574;52.818;6.516;2024-02-23T10:04:02;7.70;99.90
60723;DHT22;46574;52.818;6.516;2024-02-23T10:06:32;7.80;99.90
60723;DHT22;46574;52.818;6.516;2024-02-23T10:08:57;7.90;99.90
60723;DHT22;46574;52.818;6.516;2024-02-23T10:11:24;7.90;99.90
60723;DHT22;46574;52.818;6.516;2024-02-23T10:13:51;7.80;99.90
60723;DHT22;46574;52.818;6.516;2024-02-23T10:16:20;7.80;99.90
60723;DHT22;46574;52.818;6.516;2024-02-23T10:18:50;7.70;99.90
60723;DHT22;46574;52.818;6.516;2024-02-23T10:21:16;7.70;99.90
60723;DHT22;46574;52.818;6.516;2024-02-23T10:23:43;7.70;99.90
60723;DHT22;46574;52.818;6.516;2024-02-23T10:26:09;7.60;99.90
60723;DHT22;46574;52.818;6.516;2024-02-23T10:28:37;7.60;99.90
60723;DHT22;46574;52.818;6.516;2024-02-23T10:31:04;7.50;99.90
60723;DHT22;46574;52.818;6.516;2024-02-23T10:33:31;7.60;99.90
60723;DHT22;46574;52.818;6.516;2024-02-23T10:35:57;7.50;99.90
60723;DHT22;46574;52.818;6.516;2024-02-23T10:38:29;7.50;99.90
60723;DHT22;46574;52.818;6.516;2024-02-23T10:40:58;7.60;99.90
60723;DHT22;46574;52.818;6.516;2024-02-23T10:43:50;7.60;99.90
60723;DHT22;46574;52.818;6.516;2024-02-23T10:46:18;7.50;99.90
60723;DHT22;46574;52.818;6.516;2024-02-23T10:48:45;7.50;99.90
60723;DHT22;46574;52.818;6.516;2024-02-23T10:51:14;7.50;99.90
60723;DHT22;46574;52.818;6.516;2024-02-23T10:53:40;7.60;99.90
60723;DHT22;46574;52.818;6.516;2024-02-23T10:56:07;7.60;99.90
60723;DHT22;46574;52.818;6.516;2024-02-23T10:58:33;7.60;99.90
60723;DHT22;46574;52.818;6.516;2024-02-23T11:01:04;7.70;99.90
60723;DHT22;46574;52.818;6.516;2024-02-23T11:03:33;7.60;99.90
60723;DHT22;46574;52.818;6.516;2024-02-23T11:06:00;7.60;99.90
60723;DHT22;46574;52.818;6.516;2024-02-23T11:08:29;7.60;99.90
60723;DHT22;46574;52.818;6.516;2024-02-23T11:10:55;7.70;99.90
60723;DHT22;46574;52.818;6.516;2024-02-23T11:13:30;7.80;99.90
60723;DHT22;46574;52.818;6.516;2024-02-23T11:16:04;7.80;99.90
60723;DHT22;46574;52.818;6.516;2024-02-23T11:18:30;7.80;99.90
60723;DHT22;46574;52.818;6.516;2024-02-23T11:21:04;7.80;99.90
60723;DHT22;46574;52.818;6.516;2024-02-23T11:23:49;7.80;99.90
60723;DHT22;46574;52.818;6.516;2024-02-23T11:26:18;7.80;99.90
60723;DHT22;46574;52.818;6.516;2024-02-23T11:28:51;7.70;99.90
60723;DHT22;46574;52.818;6.516;2024-02-23T11:31:23;7.70;99.90
60723;DHT22;46574;52.818;6.516;2024-02-23T11:33:53;7.70;99.90
60723;DHT22;46574;52.818;6.516;2024-02-23T11:36:35;7.70;99.90
60723;DHT22;46574;52.818;6.516;2024-02-23T11:39:03;7.60;99.90
60723;DHT22;46574;52.818;6.516;2024-02-23T11:41:29;7.50;99.90
60723;DHT22;46574;52.818;6.516;2024-02-23T11:43:56;7.50;99.90
60723;DHT22;46574;52.818;6.516;2024-02-23T11:46:22;7.50;99.90
60723;DHT22;46574;52.818;6.516;2024-02-23T11:48:48;7.50;99.90
60723;DHT22;46574;52.818;6.516;2024-02-23T11:51:23;7.50;99.90
60723;DHT22;46574;52.818;6.516;2024-02-23T11:53:49;7.40;99.90
60723;DHT22;46574;52.818;6.516;2024-02-23T11:56:16;7.50;99.90
60723;DHT22;46574;52.818;6.516;2024-02-23T11:58:42;7.50;99.90
60723;DHT22;46574;52.818;6.516;2024-02-23T12:01:08;7.50;99.90
60723;DHT22;46574;52.818;6.516;2024-02-23T12:03:33;7.50;99.90
60723;DHT22;46574;52.818;6.516;2024-02-23T12:06:03;7.50;99.90
60723;DHT22;46574;52.818;6.516;2024-02-23T12:08:30;7.60;99.90
60723;DHT22;46574;52.818;6.516;2024-02-23T12:11:06;7.60;99.90
60723;DHT22;46574;52.818;6.516;2024-02-23T12:13:37;7.50;99.90
60723;DHT22;46574;52.818;6.516;2024-02-23T12:16:03;7.60;99.90
60723;DHT22;46574;52.818;6.516;2024-02-23T12:18:28;7.60;99.90
60723;DHT22;46574;52.818;6.516;2024-02-23T12:21:01;7.60;99.90
60723;DHT22;46574;52.818;6.516;2024-02-23T12:23:48;7.50;99.90
60723;DHT22;46574;52.818;6.516;2024-02-23T12:26:15;7.60;99.90
60723;DHT22;46574;52.818;6.516;2024-02-23T12:28:41;7.60;99.90
60723;DHT22;46574;52.818;6.516;2024-02-23T12:31:07;7.60;99.90
60723;DHT22;46574;52.818;6.516;2024-02-23T12:33:34;7.60;99.90
60723;DHT22;46574;52.818;6.516;2024-02-23T12:36:02;7.60;99.90
60723;DHT22;46574;52.818;6.516;2024-02-23T12:38:27;7.60;99.90
60723;DHT22;46574;52.818;6.516;2024-02-23T12:40:53;7.60;99.90
60723;DHT22;46574;52.818;6.516;2024-02-23T12:43:19;7.60;99.90
60723;DHT22;46574;52.818;6.516;2024-02-23T12:45:55;7.60;99.90
60723;DHT22;46574;52.818;6.516;2024-02-23T12:48:22;7.60;99.90
60723;DHT22;46574;52.818;6.516;2024-02-23T12:50:48;7.50;99.90
60723;DHT22;46574;52.818;6.516;2024-02-23T12:53:34;7.60;99.90
60723;DHT22;46574;52.818;6.516;2024-02-23T12:56:03;7.60;99.90
60723;DHT22;46574;52.818;6.516;2024-02-23T12:58:28;7.50;99.90
60723;DHT22;46574;52.818;6.516;2024-02-23T13:00:55;7.60;99.90
60723;DHT22;46574;52.818;6.516;2024-02-23T13:03:21;7.60;99.90
60723;DHT22;46574;52.818;6.516;2024-02-23T13:05:46;7.60;99.90
60723;DHT22;46574;52.818;6.516;2024-02-23T13:08:12;7.60;99.90
60723;DHT22;46574;52.818;6.516;2024-02-23T13:10:38;7.70;99.90
60723;DHT22;46574;52.818;6.516;2024-02-23T13:13:03;7.60;99.90
60723;DHT22;46574;52.818;6.516;2024-02-23T13:15:29;7.70;99.90
60723;DHT22;46574;52.818;6.516;2024-02-23T13:17:55;7.70;99.90
60723;DHT22;46574;52.818;6.516;2024-02-23T13:20:22;7.70;99.90
60723;DHT22;46574;52.818;6.516;2024-02-23T13:22:48;7.80;99.90
60723;DHT22;46574;52.818;6.516;2024-02-23T13:25:14;7.90;99.90
60723;DHT22;46574;52.818;6.516;2024-02-23T13:27:40;8.00;99.90
60723;DHT22;46574;52.818;6.516;2024-02-23T13:30:06;8.10;99.90
60723;DHT22;46574;52.818;6.516;2024-02-23T13:32:33;8.10;99.90
60723;DHT22;46574;52.818;6.516;2024-02-23T13:34:58;8.10;99.90
60723;DHT22;46574;52.818;6.516;2024-02-23T13:37:24;8.10;99.90
60723;DHT22;46574;52.818;6.516;2024-02-23T13:39:51;8.10;99.90
60723;DHT22;46574;52.818;6.516;2024-02-23T13:42:17;8.10;99.90
60723;DHT22;46574;52.818;6.516;2024-02-23T13:44:42;8.10;99.90
60723;DHT22;46574;52.818;6.516;2024-02-23T13:47:08;8.10;99.90
60723;DHT22;46574;52.818;6.516;2024-02-23T13:49:36;8.10;99.90
60723;DHT22;46574;52.818;6.516;2024-02-23T13:52:02;8.10;99.90
60723;DHT22;46574;52.818;6.516;2024-02-23T13:54:28;8.00;99.90
60723;DHT22;46574;52.818;6.516;2024-02-23T13:56:53;8.00;99.90
60723;DHT22;46574;52.818;6.516;2024-02-23T13:59:19;8.00;99.90
60723;DHT22;46574;52.818;6.516;2024-02-23T14:01:45;8.10;99.90
60723;DHT22;46574;52.818;6.516;2024-02-23T14:04:10;8.10;99.90
60723;DHT22;46574;52.818;6.516;2024-02-23T14:06:36;8.10;99.90
60723;DHT22;46574;52.818;6.516;2024-02-23T14:09:02;8.10;99.90
60723;DHT22;46574;52.818;6.516;2024-02-23T14:11:29;8.10;99.90
60723;DHT22;46574;52.818;6.516;2024-02-23T14:13:56;8.10;99.90
60723;DHT22;46574;52.818;6.516;2024-02-23T14:16:22;8.10;99.90
60723;DHT22;46574;52.818;6.516;2024-02-23T14:18:49;8.10;99.90
60723;DHT22;46574;52.818;6.516;2024-02-23T14:21:15;8.10;99.90
60723;DHT22;46574;52.818;6.516;2024-02-23T14:23:42;8.10;99.90
60723;DHT22;46574;52.818;6.516;2024-02-23T14:26:08;8.10;99.90
60723;DHT22;46574;52.818;6.516;2024-02-23T14:28:34;8.10;99.90
60723;DHT22;46574;52.818;6.516;2024-02-23T14:31:00;8.10;99.90
60723;DHT22;46574;52.818;6.516;2024-02-23T14:33:25;8.10;99.90
60723;DHT22;46574;52.818;6.516;2024-02-23T14:35:51;8.10;99.90
60723;DHT22;46574;52.818;6.516;2024-02-23T14:38:17;8.10;99.90
60723;DHT22;46574;52.818;6.516;2024-02-23T14:40:42;8.10;99.90
60723;DHT22;46574;52.818;6.516;2024-02-23T14:43:08;8.10;99.90
60723;DHT22;46574;52.818;6.516;2024-02-23T14:45:35;8.10;99.90
60723;DHT22;46574;52.818;6.516;2024-02-23T14:48:01;8.10;99.90
60723;DHT22;46574;52.818;6.516;2024-02-23T14:50:27;8.10;99.90
60723;DHT22;46574;52.818;6.516;2024-02-23T14:52:53;8.10;99.90
60723;DHT22;46574;52.818;6.516;2024-02-23T14:55:19;8.10;99.90
60723;DHT22;46574;52.818;6.516;2024-02-23T14:57:45;8.10;99.90
60723;DHT22;46574;52.818;6.516;2024-02-23T15:00:11;8.10;99.90
60723;DHT22;46574;52.818;6.516;2024-02-23T15:02:38;8.00;99.90
60723;DHT22;46574;52.818;6.516;2024-02-23T15:05:05;8.10;99.90
60723;DHT22;46574;52.818;6.516;2024-02-23T15:07:32;8.10;99.90
60723;DHT22;46574;52.818;6.516;2024-02-23T15:09:58;8.10;99.90
60723;DHT22;46574;52.818;6.516;2024-02-23T15:12:24;8.10;99.90
60723;DHT22;46574;52.818;6.516;2024-02-23T15:14:53;8.10;99.90
60723;DHT22;46574;52.818;6.516;2024-02-23T15:17:19;8.10;99.90
60723;DHT22;46574;52.818;6.516;2024-02-23T15:19:45;8.10;99.90
60723;DHT22;46574;52.818;6.516;2024-02-23T15:22:10;8.10;99.90
60723;DHT22;46574;52.818;6.516;2024-02-23T15:24:40;8.10;99.90
60723;DHT22;46574;52.818;6.516;2024-02-23T15:27:08;8.10;99.90
60723;DHT22;46574;52.818;6.516;2024-02-23T15:29:34;8.10;99.90
60723;DHT22;46574;52.818;6.516;2024-02-23T15:32:00;8.10;99.90
60723;DHT22;46574;52.818;6.516;2024-02-23T15:34:26;8.10;99.90
60723;DHT22;46574;52.818;6.516;2024-02-23T15:36:52;8.10;99.90
60723;DHT22;46574;52.818;6.516;2024-02-23T15:39:17;8.10;99.90
60723;DHT22;46574;52.818;6.516;2024-02-23T15:41:43;8.00;99.90